METAR Data
IDs: Format: Raw Decoded Include TAF

Data at: 2056 UTC 10 May 2021

KTEX 102035Z AUTO 30008G20KT 250V330 10SM BKN070 OVC080 10/M04 A3006 RMK AO2
KTEX 102015Z AUTO 30010G23KT 10SM SCT070 OVC080 09/M05 A3006 RMK AO2
KTEX 101955Z AUTO 29013G19KT 270V350 10SM SCT050 SCT070 OVC080 09/M05 A3005 RMK AO2
KTEX 101935Z AUTO 33004G14KT 10SM SCT042 SCT060 OVC070 08/M05 A3006 RMK AO2
KTEX 101915Z AUTO 29006G18KT 10SM SCT040 SCT060 OVC070 08/M06 A3006 RMK AO2
KTEX 101855Z AUTO 27008G17KT 10SM SCT060 SCT070 OVC085 08/M06 A3006 RMK AO2
KTEX 101835Z AUTO 26007G15KT 230V290 10SM SCT080 OVC085 08/M06 A3006 RMK AO2
KTEX 101815Z AUTO 29006G21KT 10SM OVC080 09/M07 A3006 RMK AO2
KTEX 101755Z AUTO 30008G16KT 250V330 10SM SCT070 OVC080 09/M06 A3006 RMK AO2 LTG DSNT N
KTEX 101735Z AUTO 32006KT 10SM SCT070 OVC080 08/M07 A3007 RMK AO2
KTEX 101715Z AUTO 26008KT 10SM SCT050 SCT070 OVC080 08/M07 A3007 RMK AO2
KTEX 101655Z AUTO 28009KT 10SM OVC080 08/M07 A3007 RMK AO2
KTEX 101635Z AUTO 30005KT 10SM OVC090 08/M08 A3007 RMK AO2
KTEX 101615Z AUTO 00000KT 10SM BKN090 BKN120 08/M08 A3006 RMK AO2
KTEX 101555Z AUTO 28004KT 10SM BKN080 BKN120 07/M07 A3006 RMK AO2
KTEX 101535Z AUTO 28006KT 10SM SCT070 BKN080 06/M07 A3006 RMK AO2
KTEX 101515Z AUTO 29005KT 10SM BKN090 06/M06 A3006 RMK AO2
KTEX 101455Z AUTO 26007KT 10SM SCT075 OVC090 04/M07 A3006 RMK AO2
KTEX 101435Z AUTO 31003KT 10SM BKN090 OVC110 03/M06 A3006 RMK AO2
KTEX 101415Z AUTO 27006KT 10SM OVC100 03/M07 A3006 RMK AO2
KTEX 101355Z AUTO 26011KT 10SM BKN090 OVC120 03/M07 A3006 RMK AO2
KTEX 101335Z AUTO 27009G14KT 10SM BKN100 BKN120 03/M07 A3006 RMK AO2
KTEX 101315Z AUTO 00000KT 10SM BKN100 BKN120 06/M10 A3005 RMK AO2
KTEX 101255Z AUTO 26005KT 10SM BKN110 07/M11 A3004 RMK AO2
KTEX 101235Z AUTO 27008G14KT 250V310 10SM SCT120 07/M11 A3004 RMK AO2
KTEX 101215Z AUTO 24004KT 10SM CLR 06/M11 A3004 RMK AO2
KTEX 101155Z AUTO 24006KT 10SM SCT110 06/M11 A3004 RMK AO2
KTEX 101135Z AUTO 28005KT 10SM OVC120 06/M10 A3004 RMK AO2
KTEX 101115Z AUTO 00000KT 10SM OVC110 05/M07 A3004 RMK AO2
KTEX 101055Z AUTO 00000KT 10SM BKN100 BKN120 05/M07 A3004 RMK AO2
KTEX 101035Z AUTO 00000KT 10SM OVC100 05/M06 A3004 RMK AO2
KTEX 101015Z AUTO 00000KT 10SM OVC100 04/M05 A3004 RMK AO2
KTEX 100955Z AUTO 00000KT 10SM OVC100 05/M05 A3005 RMK AO2
KTEX 100935Z AUTO 00000KT 10SM OVC090 04/M05 A3005 RMK AO2
KTEX 100915Z AUTO 14004KT 10SM OVC090 05/M05 A3006 RMK AO2
KTEX 100855Z AUTO 00000KT 10SM OVC090 05/M05 A3007 RMK AO2
KTEX 100835Z AUTO 13004KT 10SM OVC090 04/M05 A3008 RMK AO2
KTEX 100815Z AUTO 09007KT 10SM OVC080 04/M04 A3008 RMK AO2
KTEX 100755Z AUTO 13008KT 10SM OVC080 05/M06 A3009 RMK AO2
KTEX 100735Z AUTO 15004KT 10SM SCT050 SCT070 OVC080 05/M07 A3010 RMK AO2
KTEX 100715Z AUTO 16006KT 10SM OVC070 06/M07 A3011 RMK AO2 LTG DSNT SE
KTEX 100655Z AUTO 15004KT 10SM BKN070 OVC080 06/M07 A3011 RMK AO2 LTG DSNT SE
KTEX 100635Z AUTO 25005KT 10SM SCT050 OVC060 06/M07 A3011 RMK AO2
KTEX 100615Z AUTO 00000KT 10SM BKN060 OVC075 06/M07 A3012 RMK AO2
KTEX 100555Z AUTO 26007KT 10SM BKN060 BKN070 OVC085 06/M08 A3012 RMK AO2
KTEX 100535Z AUTO 22005KT 10SM SCT060 OVC075 07/M09 A3012 RMK AO2 LTG DSNT SE
KTEX 100515Z AUTO 29006KT 10SM SCT060 OVC075 07/M10 A3011 RMK AO2 LTG DSNT E
KTEX 100455Z AUTO 22003KT 10SM OVC080 07/M10 A3010 RMK AO2
KTEX 100435Z AUTO 23003KT 10SM OVC090 07/M10 A3010 RMK AO2
KTEX 100415Z AUTO 31003KT 10SM OVC090 07/M10 A3009 RMK AO2
KTEX 100355Z AUTO 00000KT 10SM SCT075 BKN090 BKN120 07/M10 A3010 RMK AO2
KTEX 100335Z AUTO 00000KT 10SM SCT075 BKN090 07/M10 A3010 RMK AO2
KTEX 100315Z AUTO 26007KT 10SM SCT070 BKN100 07/M11 A3010 RMK AO2
KTEX 100255Z AUTO 26007KT 10SM SCT080 OVC090 08/M11 A3009 RMK AO2
KTEX 100235Z AUTO 26003KT 10SM SCT080 BKN100 OVC120 08/M11 A3009 RMK AO2
KTEX 100215Z AUTO 26005G14KT 10SM SCT090 OVC110 08/M11 A3008 RMK AO2
KTEX 100155Z AUTO 28005KT 10SM OVC100 08/M11 A3008 RMK AO2
KTEX 100135Z AUTO 29007G14KT 10SM SCT075 OVC100 08/M11 A3008 RMK AO2
KTEX 100115Z AUTO 30003KT 10SM SCT075 OVC090 08/M11 A3008 RMK AO2
KTEX 100055Z AUTO 00000KT 10SM SCT065 OVC090 08/M11 A3008 RMK AO2
KTEX 100035Z AUTO 27006G17KT 10SM SCT065 OVC075 08/M12 A3009 RMK AO2
KTEX 100015Z AUTO 27015G19KT 10SM SCT075 OVC090 09/M12 A3008 RMK AO2
KTEX 092355Z AUTO 23011G24KT 200V260 10SM OVC090 09/M12 A3008 RMK AO2
KTEX 092335Z AUTO 25009G16KT 210V290 10SM OVC090 10/M12 A3007 RMK AO2
KTEX 092315Z AUTO 28015G20KT 10SM OVC090 09/M12 A3007 RMK AO2
KTEX 092255Z AUTO 23006G20KT 10SM OVC090 09/M12 A3007 RMK AO2
KTEX 092235Z AUTO 20013G18KT 170V250 10SM OVC090 09/M11 A3007 RMK AO2
KTEX 092215Z AUTO 24019G27KT 10SM SCT070 OVC090 10/M12 A3008 RMK AO2
KTEX 092155Z AUTO 26009KT 10SM OVC100 10/M13 A3008 RMK AO2
KTEX 092135Z AUTO 25013G21KT 10SM OVC100 11/M13 A3009 RMK AO2
KTEX 092115Z AUTO 30008G19KT 260V350 10SM OVC100 10/M13 A3009 RMK AO2
KTEX 092055Z AUTO 28011G17KT 10SM OVC090 10/M13 A3010 RMK AO2
KTEX 092035Z AUTO 28008G19KT 240V320 10SM SCT075 OVC090 08/M13 A3010 RMK AO2
KTEX 092015Z AUTO 28016G22KT 250V310 10SM BKN075 OVC090 08/M13 A3012 RMK AO2
KTEX 091955Z AUTO 27012G18KT 10SM OVC090 08/M13 A3011 RMK AO2
KTEX 091935Z AUTO 29008G15KT 210V350 10SM SCT070 OVC090 08/M13 A3012 RMK AO2
KTEX 091915Z AUTO 28011G18KT 260V320 10SM OVC090 08/M13 A3012 RMK AO2
KTEX 091855Z AUTO 28012G20KT 10SM BKN100 BKN120 09/M13 A3012 RMK AO2
KTEX 091835Z AUTO 30007KT 10SM BKN100 BKN120 10/M13 A3012 RMK AO2
KTEX 091815Z AUTO 29007KT 250V350 10SM SCT100 SCT120 09/M13 A3012 RMK AO2
KTEX 091755Z AUTO 30012G17KT 10SM CLR 10/M13 A3012 RMK AO2
KTEX 091735Z AUTO 32004KT 10SM CLR 10/M13 A3012 RMK AO2
KTEX 091715Z AUTO 35007KT 10SM CLR 08/M13 A3012 RMK AO2
KTEX 091655Z AUTO 30009G16KT 10SM CLR 08/M13 A3012 RMK AO2
KTEX 091635Z AUTO 28012G20KT 240V310 10SM CLR 09/M13 A3012 RMK AO2
KTEX 091615Z AUTO 25003KT 10SM CLR 08/M14 A3012 RMK AO2
KTEX 091555Z AUTO 00000KT 10SM CLR 07/M12 A3012 RMK AO2
KTEX 091535Z AUTO 13003KT 10SM CLR 06/M12 A3012 RMK AO2
KTEX 091515Z AUTO 13003KT 10SM CLR 06/M11 A3012 RMK AO2
KTEX 091455Z AUTO 00000KT 10SM CLR 05/M12 A3013 RMK AO2
KTEX 091435Z AUTO 00000KT 10SM CLR 03/M12 A3014 RMK AO2
KTEX 091415Z AUTO 00000KT 10SM CLR 02/M09 A3014 RMK AO2
KTEX 091355Z AUTO 00000KT 10SM CLR 02/M08 A3014 RMK AO2
KTEX 091335Z AUTO 00000KT 10SM CLR 01/M08 A3014 RMK AO2
KTEX 091315Z AUTO 00000KT 10SM CLR 01/M08 A3013 RMK AO2
KTEX 091255Z AUTO 12003KT 10SM CLR 00/M09 A3012 RMK AO2
KTEX 091235Z AUTO 09003KT 10SM CLR 00/M08 A3012 RMK AO2
KTEX 091215Z AUTO 13007KT 10SM CLR 00/M08 A3012 RMK AO2
KTEX 091155Z AUTO 13005KT 10SM CLR 00/M09 A3011 RMK AO2
KTEX 091135Z AUTO 00000KT 10SM CLR 00/M09 A3010 RMK AO2
KTEX 091115Z AUTO 11003KT 10SM CLR 00/M08 A3010 RMK AO2
KTEX 091055Z AUTO 00000KT 10SM CLR 00/M08 A3010 RMK AO2
KTEX 091035Z AUTO 00000KT 10SM CLR 01/M08 A3010 RMK AO2
KTEX 091015Z AUTO 13004KT 10SM CLR 01/M08 A3010 RMK AO2
KTEX 090955Z AUTO 15003KT 10SM CLR 01/M08 A3010 RMK AO2
KTEX 090935Z AUTO 14004KT 10SM CLR 01/M08 A3010 RMK AO2
KTEX 090915Z AUTO 14005KT 10SM CLR 02/M09 A3010 RMK AO2